createdAt,value
2022-11-17T00:01:03.131Z,44.1
2022-11-17T00:02:18.446Z,44.1
2022-11-17T00:03:34.734Z,48.5
2022-11-17T00:04:51.036Z,49.6
2022-11-17T00:06:07.319Z,45.1
2022-11-17T00:07:23.622Z,45.2
2022-11-17T00:08:39.913Z,44.4
2022-11-17T00:09:56.201Z,45.1
2022-11-17T00:11:12.508Z,45.2
2022-11-17T00:12:28.787Z,44.6
2022-11-17T00:13:45.098Z,44.9
2022-11-17T00:15:01.376Z,45.4
2022-11-17T00:16:17.671Z,45.7
2022-11-17T00:17:33.982Z,50.2
2022-11-17T00:18:49.000Z,48.6
2022-11-17T00:20:05.567Z,45.2
2022-11-17T00:21:21.873Z,47
2022-11-17T00:22:38.155Z,44.6
2022-11-17T00:23:54.456Z,44.6
2022-11-17T00:25:10.748Z,44.7
2022-11-17T00:26:27.050Z,45.1
2022-11-17T00:27:43.335Z,44.9
2022-11-17T00:28:59.627Z,44.6
2022-11-17T00:30:15.918Z,44.9
2022-11-17T00:31:32.206Z,50.7
2022-11-17T00:32:48.505Z,47
2022-11-17T00:35:21.087Z,45.4
2022-11-17T00:36:37.508Z,44.6
2022-11-17T00:37:53.799Z,45.2
2022-11-17T00:39:10.112Z,45.1
2022-11-17T00:40:26.387Z,44.3
2022-11-17T00:41:42.700Z,45.2
2022-11-17T00:42:58.980Z,45.4
2022-11-17T00:44:15.280Z,45.1
2022-11-17T00:45:31.564Z,44.7
2022-11-17T00:46:47.858Z,45.4
2022-11-17T00:48:04.153Z,47
2022-11-17T00:49:20.444Z,46.5
2022-11-17T00:50:36.740Z,47.5
2022-11-17T00:51:53.038Z,48.5
2022-11-17T00:53:08.360Z,45.1
2022-11-17T00:54:24.635Z,45.6
2022-11-17T00:55:40.944Z,45.1
2022-11-17T00:56:57.228Z,44.6
2022-11-17T00:58:13.519Z,47.6
2022-11-17T00:59:29.832Z,44.9
2022-11-17T01:00:46.107Z,44.9
2022-11-17T01:02:02.399Z,48.1
2022-11-17T01:03:18.699Z,48.3
2022-11-17T01:04:34.989Z,55.5
2022-11-17T01:05:51.279Z,44.9
2022-11-17T01:07:07.573Z,44.7
2022-11-17T01:08:23.884Z,44.9
2022-11-17T01:09:39.184Z,46.2
2022-11-17T01:10:55.470Z,46.2
2022-11-17T01:12:11.774Z,46.7
2022-11-17T01:13:28.063Z,45.1
2022-11-17T01:14:44.362Z,44.9
2022-11-17T01:16:00.652Z,45.2
2022-11-17T01:17:16.939Z,51.8
2022-11-17T01:18:33.252Z,48
2022-11-17T01:19:49.529Z,45.4
2022-11-17T01:21:05.836Z,46.8
2022-11-17T01:22:22.131Z,45.1
2022-11-17T01:23:38.409Z,46.4
2022-11-17T01:24:54.701Z,45.1
2022-11-17T01:26:10.012Z,45.1
2022-11-17T01:27:26.309Z,46.2
2022-11-17T01:28:42.601Z,45.9
2022-11-17T01:29:58.905Z,44.7
2022-11-17T01:31:15.189Z,45.7
2022-11-17T01:32:31.490Z,45.4
2022-11-17T01:33:47.791Z,51.2
2022-11-17T01:35:04.070Z,50.7
2022-11-17T01:36:20.373Z,49.3
2022-11-17T01:37:36.673Z,45.2
2022-11-17T01:38:52.949Z,47.2
2022-11-17T01:40:09.256Z,46.8
2022-11-17T01:41:25.556Z,45.6
2022-11-17T01:42:40.853Z,48.8
2022-11-17T01:43:57.145Z,51.2
2022-11-17T01:45:13.439Z,48.1
2022-11-17T01:46:29.745Z,47.6
2022-11-17T01:47:46.018Z,45.6
2022-11-17T01:49:02.314Z,47.5
2022-11-17T01:50:18.621Z,50.5
2022-11-17T01:51:34.900Z,48.5
2022-11-17T01:52:51.205Z,46.4
2022-11-17T01:54:07.493Z,48.5
2022-11-17T01:55:23.793Z,65.2
2022-11-17T01:56:40.098Z,45.4
2022-11-17T01:57:56.373Z,46
2022-11-17T01:59:11.695Z,46.2
2022-11-17T02:00:27.992Z,47.6
2022-11-17T02:01:44.274Z,45.6
2022-11-17T02:03:00.566Z,47.3
2022-11-17T02:04:16.865Z,60.1
2022-11-17T02:05:33.160Z,47.6
2022-11-17T02:06:49.453Z,56.8
2022-11-17T02:08:05.753Z,45.9
2022-11-17T02:09:22.048Z,46.2
2022-11-17T02:10:38.332Z,47.2
2022-11-17T02:11:54.624Z,47.5
2022-11-17T02:13:10.927Z,65
2022-11-17T02:14:27.225Z,46.4
2022-11-17T02:15:42.519Z,45.1
2022-11-17T02:16:58.809Z,45.7
2022-11-17T02:18:15.103Z,49.3
2022-11-17T02:19:31.408Z,48.3
2022-11-17T02:20:47.697Z,56.7
2022-11-17T02:22:03.989Z,49.7
2022-11-17T02:23:20.295Z,47.5
2022-11-17T02:24:36.585Z,45.6
2022-11-17T02:25:52.875Z,45.1
2022-11-17T02:27:09.165Z,44.9
2022-11-17T02:28:25.463Z,46
2022-11-17T02:29:41.748Z,45.2
2022-11-17T02:30:58.056Z,46.8
2022-11-17T02:32:13.359Z,52.6
2022-11-17T02:33:29.648Z,45.2
2022-11-17T02:34:45.948Z,49.7
2022-11-17T02:36:02.243Z,53.8
2022-11-17T02:37:18.547Z,47.5
2022-11-17T02:38:34.831Z,47.3
2022-11-17T02:39:51.117Z,44.9
2022-11-17T02:41:07.406Z,48.8
2022-11-17T02:42:23.705Z,45.4
2022-11-17T02:43:40.006Z,45.1
2022-11-17T02:44:56.298Z,45.1
2022-11-17T02:46:12.590Z,44.9
2022-11-17T02:47:28.890Z,49.1
2022-11-17T02:48:44.195Z,47.5
2022-11-17T02:50:00.498Z,47.2
2022-11-17T02:51:16.776Z,53.1
2022-11-17T02:52:33.070Z,44.6
2022-11-17T02:53:49.379Z,48.5
2022-11-17T02:55:04.683Z,46.8
2022-11-17T02:56:20.978Z,49.1
2022-11-17T02:57:37.277Z,45.7
2022-11-17T02:58:53.567Z,45.7
2022-11-17T03:00:09.864Z,45.9
2022-11-17T03:01:26.150Z,47.3
2022-11-17T03:02:42.457Z,44.9
2022-11-17T03:03:58.742Z,45.6
2022-11-17T03:05:15.034Z,51.2
2022-11-17T03:06:31.343Z,59.4
2022-11-17T03:07:47.616Z,51.8
2022-11-17T03:09:03.918Z,46.2
2022-11-17T03:10:20.000Z,57.3
2022-11-17T03:11:36.637Z,45.6
2022-11-17T03:12:52.917Z,47.2
2022-11-17T03:14:09.227Z,58.6
2022-11-17T03:15:25.517Z,45.2
2022-11-17T03:16:41.816Z,49.7
2022-11-17T03:17:58.100Z,49.4
2022-11-17T03:19:14.400Z,53.8
2022-11-17T03:20:30.692Z,63.9
2022-11-17T03:21:46.986Z,46.4
2022-11-17T03:23:03.271Z,57
2022-11-17T03:24:19.574Z,48.8
2022-11-17T03:25:35.872Z,45.4
2022-11-17T03:26:52.146Z,46
2022-11-17T03:28:07.465Z,54.9
2022-11-17T03:29:23.753Z,45.4
2022-11-17T03:30:40.042Z,48.1
2022-11-17T03:31:56.344Z,45.1
2022-11-17T03:33:12.636Z,45.1
2022-11-17T03:34:28.925Z,50.4
2022-11-17T03:35:45.220Z,52.2
2022-11-17T03:37:01.521Z,50.7
2022-11-17T03:38:17.827Z,45.1
2022-11-17T03:39:34.121Z,58
2022-11-17T03:40:50.397Z,46.7
2022-11-17T03:42:06.700Z,47.8
2022-11-17T03:43:22.981Z,47.5
2022-11-17T03:44:38.000Z,45.1
2022-11-17T03:45:54.588Z,47
2022-11-17T03:47:10.900Z,48.3
2022-11-17T03:48:27.194Z,46.7
2022-11-17T03:49:43.469Z,53.3
2022-11-17T03:50:59.763Z,49.1
2022-11-17T03:52:16.079Z,62.5
2022-11-17T03:53:32.364Z,53.1
2022-11-17T03:54:48.648Z,44.9
2022-11-17T03:56:04.957Z,45.4
2022-11-17T03:57:21.231Z,45.4
2022-11-17T03:58:37.529Z,46
2022-11-17T03:59:53.831Z,45.1
2022-11-17T04:01:09.137Z,45.7
2022-11-17T04:02:25.428Z,47.2
2022-11-17T04:03:41.719Z,57.5
2022-11-17T04:04:58.014Z,46
2022-11-17T04:06:14.324Z,49.3
2022-11-17T04:07:30.598Z,46.4
2022-11-17T04:08:46.891Z,48
2022-11-17T04:10:03.200Z,56.7
2022-11-17T04:11:19.474Z,50.5
2022-11-17T04:12:35.782Z,50.5
2022-11-17T04:13:52.068Z,55.7
2022-11-17T04:15:08.357Z,47.5
2022-11-17T04:16:24.654Z,50.7
2022-11-17T04:17:39.972Z,49.1
2022-11-17T04:18:56.276Z,48.3
2022-11-17T04:20:12.565Z,54.7
2022-11-17T04:21:28.856Z,48.8
2022-11-17T04:22:45.145Z,53.3
2022-11-17T04:24:01.435Z,60.4
2022-11-17T04:25:17.737Z,51.7
2022-11-17T04:26:34.018Z,52.5
2022-11-17T04:27:50.307Z,50.2
2022-11-17T04:29:06.624Z,58.4
2022-11-17T04:30:22.921Z,53.8
2022-11-17T04:31:39.207Z,51.4
2022-11-17T04:32:55.493Z,53
2022-11-17T04:34:10.802Z,50.9
2022-11-17T04:35:27.100Z,56.2
2022-11-17T04:36:43.385Z,48.8
2022-11-17T04:37:59.694Z,50.9
2022-11-17T04:39:15.985Z,48.3
2022-11-17T04:40:32.273Z,48.1
2022-11-17T04:41:48.567Z,51.2
2022-11-17T04:43:04.856Z,50.9
2022-11-17T04:44:21.165Z,57.2
2022-11-17T04:45:37.452Z,50.7
2022-11-17T04:46:53.747Z,50.5
2022-11-17T04:48:10.048Z,50.1
2022-11-17T04:49:26.324Z,57.3
2022-11-17T04:50:42.621Z,48.1
2022-11-17T04:51:57.946Z,49.6
2022-11-17T04:53:14.236Z,47.5
2022-11-17T04:54:30.533Z,51.8
2022-11-17T04:55:46.818Z,57.3
2022-11-17T04:57:03.109Z,47.5
2022-11-17T04:58:19.407Z,51.2
2022-11-17T04:59:35.696Z,48.6
2022-11-17T05:00:51.995Z,56.8
2022-11-17T05:02:08.287Z,50.1
2022-11-17T05:03:24.597Z,49.3
2022-11-17T05:04:40.878Z,49.1
2022-11-17T05:05:57.159Z,50.2
2022-11-17T05:07:13.459Z,50.7
2022-11-17T05:08:28.775Z,49.7
2022-11-17T05:09:45.080Z,48.1
2022-11-17T05:11:01.360Z,60.1
2022-11-17T05:12:17.655Z,69.7
2022-11-17T05:13:33.948Z,47.5
2022-11-17T05:14:50.247Z,50.7
2022-11-17T05:16:06.548Z,48.8
2022-11-17T05:17:22.822Z,56.7
2022-11-17T05:18:39.133Z,47
2022-11-17T05:19:55.428Z,48.1
2022-11-17T05:21:11.712Z,47.8
2022-11-17T05:22:28.007Z,48.5
2022-11-17T05:23:44.305Z,47.5
2022-11-17T05:24:59.602Z,51.4
2022-11-17T05:26:15.921Z,47.3
2022-11-17T05:27:32.201Z,49.7
2022-11-17T05:28:48.507Z,50.1
2022-11-17T05:30:04.789Z,56
2022-11-17T05:31:21.099Z,50.5
2022-11-17T05:32:37.386Z,48.3
2022-11-17T05:33:53.674Z,55.9
2022-11-17T05:35:09.977Z,48.9
2022-11-17T05:36:26.265Z,48.1
2022-11-17T05:37:42.548Z,52
2022-11-17T05:38:58.853Z,53.9
2022-11-17T05:40:15.138Z,48.1
2022-11-17T05:41:30.454Z,54.6
2022-11-17T05:42:46.744Z,58.4
2022-11-17T05:44:03.047Z,49.6
2022-11-17T05:45:19.346Z,52.6
2022-11-17T05:46:35.641Z,53.3
2022-11-17T05:47:51.924Z,53.8
2022-11-17T05:49:08.212Z,66.5
2022-11-17T05:50:24.507Z,52.6
2022-11-17T05:51:40.812Z,50.9
2022-11-17T05:52:57.091Z,51.7
2022-11-17T05:54:13.393Z,50.9
2022-11-17T05:55:29.692Z,51.2
2022-11-17T05:56:45.985Z,60.9
2022-11-17T05:58:01.290Z,59.4
2022-11-17T05:59:17.586Z,58.3
2022-11-17T06:00:33.823Z,59.7
2022-11-17T06:01:50.084Z,62.5
2022-11-17T06:03:06.306Z,60.5
2022-11-17T06:04:22.608Z,57.6
2022-11-17T06:05:38.859Z,53.3
2022-11-17T06:06:55.101Z,58.6
2022-11-17T06:08:11.403Z,57
2022-11-17T06:09:27.646Z,48
2022-11-17T06:10:43.879Z,51.2
2022-11-17T06:12:00.128Z,55.1
2022-11-17T06:13:16.380Z,60.5
2022-11-17T06:14:31.626Z,56.7
2022-11-17T06:15:47.859Z,57.6
2022-11-17T06:17:04.107Z,53.8
2022-11-17T06:18:20.344Z,53.4
2022-11-17T06:19:36.577Z,56.2
2022-11-17T06:20:52.819Z,54.9
2022-11-17T06:22:09.046Z,52.8
2022-11-17T06:23:25.312Z,52.3
2022-11-17T06:24:41.543Z,54.3
2022-11-17T06:25:57.793Z,68.3
2022-11-17T06:27:14.031Z,58.6
2022-11-17T06:28:30.260Z,52.6
2022-11-17T06:29:46.502Z,50.2
2022-11-17T06:31:01.760Z,49.6
2022-11-17T06:32:18.011Z,52.3
2022-11-17T06:33:34.224Z,58.1
2022-11-17T06:34:50.477Z,51.8
2022-11-17T06:36:06.710Z,51.8
2022-11-17T06:37:22.950Z,55.5
2022-11-17T06:38:39.198Z,54.3
2022-11-17T06:39:55.434Z,55.9
2022-11-17T06:41:11.671Z,53.4
2022-11-17T06:43:44.145Z,51.4
2022-11-17T06:45:00.398Z,58
2022-11-17T06:46:16.644Z,55.4
2022-11-17T06:47:31.902Z,54.1
2022-11-17T06:48:48.137Z,55.7
2022-11-17T06:50:04.382Z,57.6
2022-11-17T06:51:20.622Z,64.2
2022-11-17T06:52:36.841Z,57.8
2022-11-17T06:53:53.081Z,51.4
2022-11-17T06:55:09.335Z,50.4
2022-11-17T06:56:25.566Z,52.5
2022-11-17T06:57:41.819Z,55.2
2022-11-17T06:58:58.058Z,52.3
2022-11-17T07:00:14.279Z,52.8
2022-11-17T07:01:30.529Z,57.5
2022-11-17T07:02:46.780Z,51
2022-11-17T07:04:02.026Z,55.4
2022-11-17T07:05:18.271Z,53.8
2022-11-17T07:06:34.497Z,63
2022-11-17T07:07:50.740Z,51.5
2022-11-17T07:09:06.988Z,50.2
2022-11-17T07:10:22.250Z,56
2022-11-17T07:11:38.488Z,49.4
2022-11-17T07:12:54.727Z,55.1
2022-11-17T07:14:10.981Z,54.9
2022-11-17T07:15:27.203Z,51.4
2022-11-17T07:16:43.462Z,55.1
2022-11-17T07:17:59.700Z,53.3
2022-11-17T07:19:15.932Z,54.9
2022-11-17T07:20:32.185Z,55.9
2022-11-17T07:21:48.402Z,58
2022-11-17T07:23:04.664Z,54.1
2022-11-17T07:24:20.877Z,48.8
2022-11-17T07:25:37.134Z,54.7
2022-11-17T07:26:52.382Z,48.8
2022-11-17T07:28:08.640Z,51.4
2022-11-17T07:29:24.866Z,54.9
2022-11-17T07:30:41.105Z,57.5
2022-11-17T07:31:57.348Z,50.7
2022-11-17T07:33:13.588Z,53.4
2022-11-17T07:34:29.823Z,50.9
2022-11-17T07:35:46.063Z,52.6
2022-11-17T07:37:02.314Z,55.1
2022-11-17T07:38:18.535Z,58.6
2022-11-17T07:39:34.783Z,52.3
2022-11-17T07:40:51.024Z,57.6
2022-11-17T07:42:07.264Z,55.9
2022-11-17T07:43:22.519Z,49.6
2022-11-17T07:44:38.758Z,56.3
2022-11-17T07:45:55.002Z,54.6
2022-11-17T07:47:11.237Z,53.4
2022-11-17T07:48:27.491Z,63.8
2022-11-17T07:49:43.721Z,56.7
2022-11-17T07:50:59.953Z,50.7
2022-11-17T07:52:16.201Z,52.6
2022-11-17T07:53:32.452Z,61.7
2022-11-17T07:54:48.681Z,56
2022-11-17T07:56:04.928Z,51
2022-11-17T07:57:21.171Z,54.4
2022-11-17T07:58:37.396Z,52.2
2022-11-17T07:59:52.653Z,50.7
2022-11-17T08:01:08.896Z,52.5
2022-11-17T08:02:25.138Z,55.7
2022-11-17T08:03:41.368Z,56.7
2022-11-17T08:04:57.600Z,54.9
2022-11-17T08:06:13.866Z,55.1
2022-11-17T08:07:30.093Z,50.4
2022-11-17T08:08:46.328Z,54.7
2022-11-17T08:10:02.577Z,51.7
2022-11-17T08:11:18.811Z,53.4
2022-11-17T08:12:35.046Z,59.4
2022-11-17T08:13:51.292Z,48.8
2022-11-17T08:15:07.517Z,60.5
2022-11-17T08:16:22.777Z,49.3
2022-11-17T08:17:39.019Z,56.2
2022-11-17T08:18:55.275Z,60.9
2022-11-17T08:20:11.511Z,58.3
2022-11-17T08:21:27.757Z,52
2022-11-17T08:22:43.976Z,54.4
2022-11-17T08:24:00.229Z,55.1
2022-11-17T08:25:16.457Z,61
2022-11-17T08:26:32.709Z,52.2
2022-11-17T08:27:48.951Z,49.7
2022-11-17T08:29:05.196Z,53.3
2022-11-17T08:30:21.439Z,49.3
2022-11-17T08:31:37.668Z,56.5
2022-11-17T08:32:52.930Z,60.2
2022-11-17T08:34:09.174Z,58.4
2022-11-17T08:35:25.393Z,51.7
2022-11-17T08:36:41.654Z,49.7
2022-11-17T08:37:57.879Z,53.3
2022-11-17T08:39:14.109Z,54.6
2022-11-17T08:40:30.357Z,58.1
2022-11-17T08:41:46.595Z,55.4
2022-11-17T08:43:02.836Z,53.1
2022-11-17T08:44:19.079Z,51.2
2022-11-17T08:45:35.332Z,58
2022-11-17T08:46:51.549Z,51.8
2022-11-17T08:48:07.793Z,55.9
2022-11-17T08:49:23.062Z,49.3
2022-11-17T08:50:39.285Z,55.5
2022-11-17T08:51:55.533Z,52.6
2022-11-17T08:53:11.773Z,57
2022-11-17T08:54:28.002Z,57.3
2022-11-17T08:55:44.244Z,51.8
2022-11-17T08:57:00.488Z,55.9
2022-11-17T08:58:16.728Z,50.5
2022-11-17T08:59:32.983Z,56.5
2022-11-17T09:00:49.199Z,54.3
2022-11-17T09:02:05.447Z,55.4
2022-11-17T09:03:21.683Z,54.1
2022-11-17T09:04:37.947Z,54.1
2022-11-17T09:05:53.180Z,55.5
2022-11-17T09:07:09.425Z,53.3
2022-11-17T09:08:25.673Z,53.8
2022-11-17T09:09:41.910Z,53.4
2022-11-17T09:12:14.399Z,54.4
2022-11-17T09:13:30.621Z,49.3
2022-11-17T09:14:46.880Z,57.5
2022-11-17T09:16:03.100Z,51
2022-11-17T09:17:19.344Z,49.4
2022-11-17T09:18:35.588Z,55.1
2022-11-17T09:19:51.833Z,55.4
2022-11-17T09:21:08.062Z,56
2022-11-17T09:22:24.314Z,54.9
2022-11-17T09:23:40.670Z,55.4
2022-11-17T09:24:56.908Z,59.1
2022-11-17T09:26:13.135Z,59.2
2022-11-17T09:27:29.382Z,55.9
2022-11-17T09:28:45.615Z,53.8
2022-11-17T09:30:01.860Z,53.6
2022-11-17T09:31:18.102Z,54.3
2022-11-17T09:32:34.347Z,58.9
2022-11-17T09:33:50.582Z,57.3
2022-11-17T09:35:06.821Z,53.3
2022-11-17T09:36:23.060Z,53.6
2022-11-17T09:37:39.318Z,53.8
2022-11-17T09:38:55.537Z,53.9
2022-11-17T09:40:10.799Z,52.8
2022-11-17T09:41:27.033Z,55.2
2022-11-17T09:42:43.277Z,56.2
2022-11-17T09:43:59.522Z,55.9
2022-11-17T09:45:15.770Z,54.7
2022-11-17T09:46:32.003Z,54.9
2022-11-17T09:47:48.226Z,58.8
2022-11-17T09:49:04.482Z,56.7
2022-11-17T09:50:20.702Z,53.9
2022-11-17T09:51:36.955Z,54.3
2022-11-17T09:52:53.190Z,55.1
2022-11-17T09:54:09.426Z,51.7
2022-11-17T09:55:25.661Z,56.3
2022-11-17T09:56:40.919Z,55.2
2022-11-17T09:57:57.168Z,52.6
2022-11-17T09:59:13.416Z,56
2022-11-17T10:00:29.656Z,52.3
2022-11-17T10:01:45.906Z,58
2022-11-17T10:03:02.134Z,54.6
2022-11-17T10:04:18.374Z,53.6
2022-11-17T10:05:34.603Z,58
2022-11-17T10:06:50.853Z,51.5
2022-11-17T10:08:07.088Z,57.5
2022-11-17T10:09:23.325Z,56.5
2022-11-17T10:10:39.559Z,54.6
2022-11-17T10:11:55.813Z,60.1
2022-11-17T10:13:11.076Z,54.1
2022-11-17T10:14:27.306Z,53.8
2022-11-17T10:15:43.553Z,59.2
2022-11-17T10:16:59.785Z,53.3
2022-11-17T10:18:16.023Z,53.6
2022-11-17T10:19:32.266Z,53
2022-11-17T10:20:48.510Z,54.3
2022-11-17T10:22:04.745Z,57.3
2022-11-17T10:23:20.981Z,57.3
2022-11-17T10:24:37.222Z,60.4
2022-11-17T10:25:53.465Z,55.2
2022-11-17T10:27:09.706Z,58.6
2022-11-17T10:28:25.940Z,52.8
2022-11-17T10:29:41.196Z,53.3
2022-11-17T10:30:57.437Z,54.4
2022-11-17T10:32:13.668Z,62.1
2022-11-17T10:33:29.903Z,54.1
2022-11-17T10:34:46.147Z,53.9
2022-11-17T10:36:02.390Z,55.9
2022-11-17T10:37:18.643Z,59.4
2022-11-17T10:38:34.885Z,55.9
2022-11-17T10:39:51.123Z,58.9
2022-11-17T10:41:07.357Z,61.2
2022-11-17T10:42:23.580Z,59.4
2022-11-17T10:43:39.839Z,61.8
2022-11-17T10:44:56.071Z,62.8
2022-11-17T10:46:11.335Z,58.4
2022-11-17T10:47:27.571Z,60.1
2022-11-17T10:48:43.806Z,60.7
2022-11-17T10:50:00.047Z,57.5
2022-11-17T10:51:16.301Z,57.8
2022-11-17T10:52:32.541Z,60.1
2022-11-17T10:53:48.767Z,56.3
2022-11-17T10:55:04.992Z,53.8
2022-11-17T10:56:21.248Z,59.7
2022-11-17T10:57:37.475Z,57.8
2022-11-17T10:58:53.730Z,58.6
2022-11-17T11:00:09.959Z,58.4
2022-11-17T11:01:26.200Z,62.3
2022-11-17T11:02:41.469Z,55.9
2022-11-17T11:03:57.688Z,55.7
2022-11-17T11:05:13.943Z,57.2
2022-11-17T11:06:30.181Z,59.1
2022-11-17T11:07:46.428Z,59.1
2022-11-17T11:09:02.661Z,60.2
2022-11-17T11:10:18.894Z,59.4
2022-11-17T11:11:35.136Z,56.8
2022-11-17T11:12:51.364Z,57.2
2022-11-17T11:14:07.615Z,57.3
2022-11-17T11:15:23.864Z,53.3
2022-11-17T11:16:40.096Z,60.2
2022-11-17T11:17:56.345Z,55.5
2022-11-17T11:19:11.587Z,57.8
2022-11-17T11:20:27.821Z,58.8
2022-11-17T11:21:44.081Z,58.9
2022-11-17T11:23:00.303Z,59.1
2022-11-17T11:24:16.567Z,62
2022-11-17T11:25:31.813Z,59.7
2022-11-17T11:26:48.070Z,63.6
2022-11-17T11:28:04.308Z,67.5
2022-11-17T11:29:20.535Z,60.7
2022-11-17T11:30:36.775Z,58.9
2022-11-17T11:31:53.019Z,61.3
2022-11-17T11:33:09.268Z,55.5
2022-11-17T11:34:25.499Z,60.9
2022-11-17T11:35:41.736Z,61
2022-11-17T11:36:57.971Z,57.5
2022-11-17T11:38:14.206Z,57.3
2022-11-17T11:39:30.469Z,61.7
2022-11-17T11:40:46.710Z,64.9
2022-11-17T11:42:01.946Z,63.3
2022-11-17T11:43:18.195Z,65.2
2022-11-17T11:44:34.435Z,66.7
2022-11-17T11:45:50.667Z,68.6
2022-11-17T11:47:06.907Z,69.4
2022-11-17T11:48:23.146Z,70.7
2022-11-17T11:49:39.397Z,67.3
2022-11-17T11:50:55.628Z,66.7
2022-11-17T11:52:11.871Z,61.3
2022-11-17T11:53:28.118Z,65.2
2022-11-17T11:54:44.361Z,63.3
2022-11-17T11:56:00.598Z,62.3
2022-11-17T11:57:16.818Z,61.7
2022-11-17T11:58:32.074Z,56.5
2022-11-17T11:59:48.335Z,62
2022-11-17T12:01:04.562Z,58.8
2022-11-17T12:02:20.800Z,55.2
2022-11-17T12:03:37.046Z,58.4
2022-11-17T12:04:53.286Z,57.3
2022-11-17T12:06:09.520Z,55.7
2022-11-17T12:07:25.762Z,60.4
2022-11-17T12:08:42.006Z,60.2
2022-11-17T12:09:58.238Z,61.5
2022-11-17T12:11:14.468Z,57.5
2022-11-17T12:12:30.734Z,60.9
2022-11-17T12:13:46.955Z,60.4
2022-11-17T12:15:02.232Z,58.1
2022-11-17T12:16:18.441Z,56
2022-11-17T12:17:34.691Z,55.1
2022-11-17T12:18:50.944Z,56.7
2022-11-17T12:20:07.167Z,54.9
2022-11-17T12:21:23.430Z,56.7
2022-11-17T12:22:39.655Z,59.2
2022-11-17T12:23:55.898Z,54.3
2022-11-17T12:25:12.132Z,56.3
2022-11-17T12:26:28.372Z,53.8
2022-11-17T12:27:44.600Z,58.4
2022-11-17T12:29:00.855Z,58
2022-11-17T12:30:17.087Z,60.5
2022-11-17T12:31:32.360Z,53.9
2022-11-17T12:32:48.602Z,55.4
2022-11-17T12:34:04.828Z,52.6
2022-11-17T12:35:21.064Z,57.8
2022-11-17T12:36:37.298Z,65.2
2022-11-17T12:37:53.547Z,68.1
2022-11-17T12:39:09.796Z,62
2022-11-17T12:40:26.028Z,62.8
2022-11-17T12:41:42.252Z,55.1
2022-11-17T12:42:58.493Z,58.8
2022-11-17T12:44:14.760Z,53.3
2022-11-17T12:45:31.000Z,53.1
2022-11-17T12:46:47.223Z,56.2
2022-11-17T12:48:02.488Z,52.6
2022-11-17T12:49:18.718Z,53
2022-11-17T12:50:34.950Z,50.5
2022-11-17T12:51:51.197Z,62.3
2022-11-17T12:53:07.444Z,53.8
2022-11-17T12:54:23.677Z,50.7
2022-11-17T12:55:39.918Z,55.1
2022-11-17T12:56:56.168Z,50.7
2022-11-17T12:58:12.405Z,54.9
2022-11-17T12:59:28.653Z,58.9
2022-11-17T13:00:44.879Z,54.6
2022-11-17T13:02:01.115Z,60.5
2022-11-17T13:03:17.362Z,54.9
2022-11-17T13:04:32.000Z,60.2
2022-11-17T13:05:48.850Z,55.4
2022-11-17T13:07:05.093Z,55.9
2022-11-17T13:08:21.341Z,63.4
2022-11-17T13:09:37.579Z,52.3
2022-11-17T13:10:53.822Z,55.9
2022-11-17T13:12:10.056Z,51.8
2022-11-17T13:13:26.306Z,51.7
2022-11-17T13:14:42.532Z,59.1
2022-11-17T13:15:58.790Z,60.5
2022-11-17T13:17:15.008Z,53.3
2022-11-17T13:18:31.253Z,58.6
2022-11-17T13:19:47.490Z,58.4
2022-11-17T13:21:03.852Z,55.2
2022-11-17T13:22:20.101Z,52.5
2022-11-17T13:23:36.337Z,50.2
2022-11-17T13:24:52.566Z,55.7
2022-11-17T13:26:08.830Z,55.7
2022-11-17T13:27:25.043Z,54.7
2022-11-17T13:28:41.283Z,65.4
2022-11-17T13:29:57.533Z,55.1
2022-11-17T13:31:13.775Z,51.7
2022-11-17T13:32:30.013Z,57.3
2022-11-17T13:33:46.250Z,57.3
2022-11-17T13:35:02.502Z,54.9
2022-11-17T13:36:18.736Z,58.6
2022-11-17T13:37:33.988Z,51
2022-11-17T13:38:50.237Z,54.4
2022-11-17T13:40:06.467Z,54.9
2022-11-17T13:41:22.713Z,54.1
2022-11-17T13:42:38.936Z,54.1
2022-11-17T13:43:55.186Z,55.9
2022-11-17T13:45:11.433Z,54.1
2022-11-17T13:46:27.677Z,60.4
2022-11-17T13:47:43.926Z,58.4
2022-11-17T13:49:00.159Z,55.4
2022-11-17T13:50:16.390Z,55.1
2022-11-17T13:51:32.634Z,58.8
2022-11-17T13:52:48.880Z,53.1
2022-11-17T13:54:04.119Z,57.5
2022-11-17T13:55:20.362Z,58.8
2022-11-17T13:56:36.612Z,58.4
2022-11-17T13:57:52.846Z,55.4
2022-11-17T13:59:09.092Z,51.8
2022-11-17T14:00:25.338Z,55.7
2022-11-17T14:01:41.577Z,57.2
2022-11-17T14:02:57.807Z,55.2
2022-11-17T14:04:14.050Z,53
2022-11-17T14:05:30.272Z,53.6
2022-11-17T14:06:46.517Z,52.5
2022-11-17T14:08:02.766Z,54.3
2022-11-17T14:09:19.020Z,55.2
2022-11-17T14:10:34.260Z,55.1
2022-11-17T14:11:50.507Z,59.2
2022-11-17T14:13:06.745Z,51.4
2022-11-17T14:14:22.979Z,55.2
2022-11-17T14:15:39.227Z,58
2022-11-17T14:16:55.465Z,58.1
2022-11-17T14:18:11.695Z,61.8
2022-11-17T14:19:27.937Z,63
2022-11-17T14:20:44.176Z,66.2
2022-11-17T14:22:00.432Z,64.9
2022-11-17T14:23:16.648Z,60.5
2022-11-17T14:24:32.880Z,58.4
2022-11-17T14:25:49.146Z,62
2022-11-17T14:27:05.497Z,58.9
2022-11-17T14:28:21.738Z,60.7
2022-11-17T14:29:37.970Z,55.5
2022-11-17T14:30:54.200Z,60.1
2022-11-17T14:32:10.450Z,55.4
2022-11-17T14:33:26.694Z,59.9
2022-11-17T14:34:42.931Z,56.3
2022-11-17T14:35:59.176Z,61.7
2022-11-17T14:37:15.403Z,58.6
2022-11-17T14:38:31.668Z,57
2022-11-17T14:39:47.889Z,58
2022-11-17T14:41:04.134Z,59.1
2022-11-17T14:42:20.381Z,58.6
2022-11-17T14:43:35.626Z,60.4
2022-11-17T14:44:51.871Z,53.9
2022-11-17T14:46:08.106Z,58.8
2022-11-17T14:47:24.351Z,57.2
2022-11-17T14:48:40.597Z,61
2022-11-17T14:49:56.833Z,59.1
2022-11-17T14:51:13.066Z,62.6
2022-11-17T14:52:29.311Z,63.1
2022-11-17T14:53:45.559Z,57.8
2022-11-17T14:55:01.791Z,58
2022-11-17T14:56:18.036Z,59.4
2022-11-17T14:57:34.267Z,57
2022-11-17T14:58:50.495Z,62
2022-11-17T15:00:05.765Z,63.8
2022-11-17T15:01:22.011Z,62.5
2022-11-17T15:02:38.243Z,66.5
2022-11-17T15:03:54.482Z,66.2
2022-11-17T15:05:10.729Z,65.4
2022-11-17T15:06:26.969Z,65.4
2022-11-17T15:07:43.189Z,66.5
2022-11-17T15:08:59.440Z,63.1
2022-11-17T15:10:15.677Z,64.4
2022-11-17T15:11:31.931Z,63.8
2022-11-17T15:12:48.169Z,66.5
2022-11-17T15:14:04.389Z,64.2
2022-11-17T15:15:20.637Z,62.1
2022-11-17T15:16:35.895Z,63.4
2022-11-17T15:17:52.152Z,66.7
2022-11-17T15:19:08.386Z,62.6
2022-11-17T15:20:24.618Z,60.2
2022-11-17T15:21:40.859Z,54.3
2022-11-17T15:22:57.081Z,58.9
2022-11-17T15:24:13.341Z,59.7
2022-11-17T15:25:29.577Z,59.7
2022-11-17T15:26:45.816Z,60.5
2022-11-17T15:28:02.065Z,63.3
2022-11-17T15:29:18.300Z,59.4
2022-11-17T15:30:34.518Z,56.8
2022-11-17T15:31:50.787Z,55.9
2022-11-17T15:33:06.046Z,58.6
2022-11-17T15:34:22.272Z,56
2022-11-17T15:35:38.523Z,56.3
2022-11-17T15:36:54.733Z,58.1
2022-11-17T15:38:10.991Z,63.3
2022-11-17T15:39:27.225Z,60.4
2022-11-17T15:40:42.488Z,52.6
2022-11-17T15:41:58.786Z,56
2022-11-17T15:43:15.020Z,56.5
2022-11-17T15:44:31.268Z,58
2022-11-17T15:45:47.492Z,67.6
2022-11-17T15:47:03.783Z,64.2
2022-11-17T15:48:20.078Z,63.6
2022-11-17T15:49:36.393Z,67
2022-11-17T15:50:52.678Z,67.8
2022-11-17T15:52:08.964Z,63.6
2022-11-17T15:53:25.261Z,58.9
2022-11-17T15:54:41.554Z,53.4
2022-11-17T15:55:57.848Z,58.4
2022-11-17T15:57:14.276Z,55.9
2022-11-17T15:58:30.560Z,55.2
2022-11-17T15:59:46.853Z,52.8
2022-11-17T16:01:03.148Z,52.8
2022-11-17T16:02:19.444Z,56.2
2022-11-17T16:03:35.730Z,58.6
2022-11-17T16:04:52.037Z,59.1
2022-11-17T16:06:08.327Z,50.4
2022-11-17T16:07:24.618Z,53.8
2022-11-17T16:08:40.920Z,53.4
2022-11-17T16:09:57.197Z,53.8
2022-11-17T16:11:13.494Z,50.2
2022-11-17T16:12:29.781Z,53
2022-11-17T16:13:45.095Z,55.9
2022-11-17T16:15:01.388Z,52.3
2022-11-17T16:16:17.685Z,49.9
2022-11-17T16:17:33.977Z,50.7
2022-11-17T16:18:50.287Z,53.9
2022-11-17T16:20:06.570Z,53.4
2022-11-17T16:21:22.859Z,55.2
2022-11-17T16:22:39.155Z,56.5
2022-11-17T16:23:55.445Z,58.9
2022-11-17T16:25:11.736Z,59.1
2022-11-17T16:26:28.034Z,52.6
2022-11-17T16:27:44.326Z,52
2022-11-17T16:29:00.623Z,57.6
2022-11-17T16:30:15.935Z,55.1
2022-11-17T16:31:32.221Z,55.2
2022-11-17T16:32:48.523Z,55.2
2022-11-17T16:34:04.808Z,62
2022-11-17T16:35:21.115Z,58
2022-11-17T16:36:37.403Z,59.4
2022-11-17T16:37:53.688Z,53.6
2022-11-17T16:39:10.001Z,58.6
2022-11-17T16:40:26.270Z,59.4
2022-11-17T16:41:42.575Z,49.7
2022-11-17T16:42:58.865Z,49.7
2022-11-17T16:44:15.159Z,52.6
2022-11-17T16:45:31.469Z,52
2022-11-17T16:46:46.757Z,55.9
2022-11-17T16:48:03.062Z,57.8
2022-11-17T16:49:19.364Z,66.3
2022-11-17T16:50:35.650Z,50.7
2022-11-17T16:51:51.943Z,52.3
2022-11-17T16:53:08.224Z,57.5
2022-11-17T16:54:24.521Z,57.6
2022-11-17T16:55:40.833Z,57
2022-11-17T16:56:57.121Z,58.6
2022-11-17T16:58:13.423Z,65.7
2022-11-17T16:59:29.714Z,63.8
2022-11-17T17:00:45.997Z,63.6
2022-11-17T17:02:02.294Z,57.5
2022-11-17T17:03:17.593Z,58.3